Time;durP1;ratioP1;P1;durP2;ratioP2;P2;SDS_P1;SDS_P2;PMS_P1;PMS_P2;Temp;Humidity;BMP_temperature;BMP_pressure;BME280_temperature;BME280_humidity;BME280_pressure;Samples;Min_cycle;Max_cycle;Signal;HPM_P1;HPM_P2
2024/04/04 00:00:28;;;;;;;1.42;0.60;;;;;;;;;;5016551;28;20072;-57
2024/04/04 00:02:55;;;;;;;1.10;0.60;;;;;;;;;;5022699;28;20051;-53
2024/04/04 00:05:21;;;;;;;1.83;0.77;;;;;;;;;;5030904;28;20064;-57
2024/04/04 00:07:48;;;;;;;2.28;0.60;;;;;;;;;;5031148;28;20050;-56
2024/04/04 00:10:13;;;;;;;0.90;0.60;;;;;;;;;;5028508;28;20049;-56
2024/04/04 00:12:42;;;;;;;1.85;0.70;;;;;;;;;;5018329;28;20045;-57
2024/04/04 00:15:09;;;;;;;1.42;0.50;;;;;;;;;;5012864;28;20064;-56
2024/04/04 00:17:35;;;;;;;1.77;0.68;;;;;;;;;;5021355;28;20077;-53
2024/04/04 00:20:02;;;;;;;2.78;0.70;;;;;;;;;;5017914;28;20065;-56
2024/04/04 00:22:28;;;;;;;1.00;0.70;;;;;;;;;;5028745;28;20654;-56
2024/04/04 00:24:54;;;;;;;4.80;1.20;;;;;;;;;;5023696;28;20042;-52
2024/04/04 00:27:21;;;;;;;1.88;0.65;;;;;;;;;;5031649;28;20046;-56
2024/04/04 00:29:49;;;;;;;3.33;0.70;;;;;;;;;;5035003;28;20057;-57
2024/04/04 00:32:15;;;;;;;2.15;0.85;;;;;;;;;;5034866;28;20490;-53
2024/04/04 00:34:41;;;;;;;2.30;0.70;;;;;;;;;;5023640;28;20465;-57
2024/04/04 00:37:08;;;;;;;1.30;0.50;;;;;;;;;;5022346;28;20052;-56
2024/04/04 00:39:34;;;;;;;1.13;0.57;;;;;;;;;;5013627;28;20054;-55
2024/04/04 00:42:01;;;;;;;1.63;0.70;;;;;;;;;;5027189;28;20050;-55
2024/04/04 00:44:27;;;;;;;2.50;0.68;;;;;;;;;;5034879;28;20053;-57
2024/04/04 00:46:55;;;;;;;1.52;0.60;;;;;;;;;;5035211;28;20064;-56
2024/04/04 00:49:21;;;;;;;1.67;0.55;;;;;;;;;;5035078;28;20050;-55
2024/04/04 00:51:49;;;;;;;2.92;0.70;;;;;;;;;;5027904;28;20053;-55
2024/04/04 00:54:15;;;;;;;1.98;0.63;;;;;;;;;;5034379;28;20045;-57
2024/04/04 00:56:42;;;;;;;2.05;0.60;;;;;;;;;;5034957;28;20552;-52
2024/04/04 00:59:11;;;;;;;3.38;0.60;;;;;;;;;;5034531;28;20049;-56
2024/04/04 01:01:38;;;;;;;1.08;0.60;;;;;;;;;;5018188;28;20042;-57
2024/04/04 01:04:06;;;;;;;1.30;0.60;;;;;;;;;;5016898;28;20417;-55
2024/04/04 01:06:33;;;;;;;1.05;0.60;;;;;;;;;;5019243;28;20054;-55
2024/04/04 01:09:00;;;;;;;2.70;0.70;;;;;;;;;;5021579;28;20148;-55
2024/04/04 01:11:27;;;;;;;1.45;0.57;;;;;;;;;;5016448;28;20065;-56
2024/04/04 01:13:53;;;;;;;0.95;0.50;;;;;;;;;;5019220;28;20057;-56
2024/04/04 01:16:20;;;;;;;1.30;0.60;;;;;;;;;;5017588;28;20465;-60
2024/04/04 01:18:46;;;;;;;2.03;0.57;;;;;;;;;;5012034;28;20053;-57
2024/04/04 01:21:14;;;;;;;0.90;0.50;;;;;;;;;;5016195;28;20057;-56
2024/04/04 01:23:42;;;;;;;1.08;0.52;;;;;;;;;;5025990;28;20062;-54
2024/04/04 01:26:08;;;;;;;0.60;0.50;;;;;;;;;;5024804;28;20103;-58
2024/04/04 01:28:35;;;;;;;0.85;0.50;;;;;;;;;;5029112;28;20050;-55
2024/04/04 01:31:02;;;;;;;1.33;0.50;;;;;;;;;;5030700;28;20045;-56
2024/04/04 01:33:28;;;;;;;1.60;0.60;;;;;;;;;;5015435;28;20045;-56
2024/04/04 01:35:55;;;;;;;2.22;0.70;;;;;;;;;;5033535;28;20539;-57
2024/04/04 01:38:21;;;;;;;1.52;0.70;;;;;;;;;;5029913;28;20496;-51
2024/04/04 01:40:50;;;;;;;1.55;0.60;;;;;;;;;;5033554;28;20049;-52
2024/04/04 01:43:16;;;;;;;1.35;0.60;;;;;;;;;;5028016;28;20057;-54
2024/04/04 01:45:43;;;;;;;1.17;0.50;;;;;;;;;;5016428;28;20478;-59
2024/04/04 01:48:09;;;;;;;2.00;0.60;;;;;;;;;;5017231;28;20385;-56
2024/04/04 01:50:36;;;;;;;1.60;0.50;;;;;;;;;;5033335;28;20056;-51
2024/04/04 01:53:02;;;;;;;1.17;0.50;;;;;;;;;;5033141;28;20057;-53
2024/04/04 01:55:30;;;;;;;0.88;0.60;;;;;;;;;;5030841;28;20068;-53
2024/04/04 01:57:57;;;;;;;1.50;0.60;;;;;;;;;;5033074;28;20073;-56
2024/04/04 02:00:26;;;;;;;2.67;0.70;;;;;;;;;;5033436;28;20045;-54
2024/04/04 02:02:52;;;;;;;1.35;0.57;;;;;;;;;;5028646;28;20472;-54
2024/04/04 02:05:19;;;;;;;1.70;0.60;;;;;;;;;;5022496;28;20084;-55
2024/04/04 02:07:45;;;;;;;0.77;0.40;;;;;;;;;;5027525;28;20482;-55
2024/04/04 02:10:12;;;;;;;2.50;0.60;;;;;;;;;;5033201;28;20128;-60
2024/04/04 02:12:38;;;;;;;2.25;0.85;;;;;;;;;;5033042;28;20056;-56
2024/04/04 02:15:09;;;;;;;1.25;0.50;;;;;;;;;;5030501;28;20046;-57
2024/04/04 02:17:36;;;;;;;1.55;0.60;;;;;;;;;;5026823;28;20401;-57
2024/04/04 02:20:05;;;;;;;1.40;0.50;;;;;;;;;;5032421;28;20057;-60
2024/04/04 02:22:31;;;;;;;0.82;0.50;;;;;;;;;;5026646;28;20053;-57
2024/04/04 02:24:58;;;;;;;2.47;0.95;;;;;;;;;;5016546;28;20498;-56
2024/04/04 02:27:24;;;;;;;0.68;0.50;;;;;;;;;;5015252;28;20405;-57
2024/04/04 02:29:51;;;;;;;4.10;0.80;;;;;;;;;;5033150;28;20053;-58
2024/04/04 02:32:18;;;;;;;2.25;0.65;;;;;;;;;;5032815;28;20050;-56
2024/04/04 02:34:45;;;;;;;2.00;0.60;;;;;;;;;;5026712;28;20147;-59
2024/04/04 02:37:11;;;;;;;1.00;0.60;;;;;;;;;;5031643;28;20045;-56
2024/04/04 02:39:38;;;;;;;2.10;0.63;;;;;;;;;;5032308;28;20472;-55
2024/04/04 02:42:04;;;;;;;1.23;0.63;;;;;;;;;;5032212;28;20084;-54
2024/04/04 02:44:31;;;;;;;1.20;0.60;;;;;;;;;;5031950;28;20472;-57
2024/04/04 02:46:57;;;;;;;2.30;0.60;;;;;;;;;;5019297;28;20100;-58
2024/04/04 02:49:25;;;;;;;2.42;0.70;;;;;;;;;;5028534;28;20041;-56
2024/04/04 02:51:51;;;;;;;1.25;0.60;;;;;;;;;;5024238;28;20516;-55
2024/04/04 02:54:18;;;;;;;1.35;0.60;;;;;;;;;;5031757;28;20062;-59
2024/04/04 02:56:47;;;;;;;2.88;0.70;;;;;;;;;;5024465;28;20058;-55
2024/04/04 02:59:14;;;;;;;2.60;0.80;;;;;;;;;;5031887;28;20136;-57
2024/04/04 03:01:39;;;;;;;1.40;0.60;;;;;;;;;;5032722;28;20053;-59
2024/04/04 03:04:07;;;;;;;0.98;0.60;;;;;;;;;;5028346;28;20049;-57
2024/04/04 03:06:35;;;;;;;3.85;0.70;;;;;;;;;;5025770;28;20046;-58
2024/04/04 03:09:03;;;;;;;1.92;1.25;;;;;;;;;;5024356;28;20541;-58
2024/04/04 03:11:29;;;;;;;2.40;0.70;;;;;;;;;;5032432;28;20053;-56
2024/04/04 03:13:56;;;;;;;2.13;0.68;;;;;;;;;;5032187;28;20847;-55
2024/04/04 03:16:22;;;;;;;1.63;0.60;;;;;;;;;;5030167;28;20041;-56
2024/04/04 03:18:49;;;;;;;1.88;0.60;;;;;;;;;;5019183;28;20041;-57
2024/04/04 03:21:15;;;;;;;3.17;1.15;;;;;;;;;;5032123;28;20056;-58
2024/04/04 03:23:43;;;;;;;1.52;0.57;;;;;;;;;;5031610;28;20068;-59
2024/04/04 03:26:09;;;;;;;3.38;1.05;;;;;;;;;;5031422;28;20060;-55
2024/04/04 03:28:36;;;;;;;3.55;0.65;;;;;;;;;;5018012;28;20053;-57
2024/04/04 03:31:02;;;;;;;1.75;0.73;;;;;;;;;;5011635;28;20046;-57
2024/04/04 03:33:29;;;;;;;1.20;0.60;;;;;;;;;;5011732;28;20134;-53
2024/04/04 03:35:55;;;;;;;2.08;0.70;;;;;;;;;;5011712;28;20509;-58
2024/04/04 03:38:22;;;;;;;2.10;1.05;;;;;;;;;;5011694;28;20052;-55
2024/04/04 03:40:54;;;;;;;0.95;0.70;;;;;;;;;;5031748;28;20389;-60
2024/04/04 03:43:22;;;;;;;3.55;0.85;;;;;;;;;;5031435;28;20431;-56
2024/04/04 03:45:48;;;;;;;1.83;0.60;;;;;;;;;;5031274;28;20054;-59
2024/04/04 03:48:17;;;;;;;1.65;0.55;;;;;;;;;;5027730;28;20041;-56
2024/04/04 03:50:44;;;;;;;3.17;0.80;;;;;;;;;;5025382;28;20100;-57
2024/04/04 03:53:11;;;;;;;1.13;0.52;;;;;;;;;;5026934;28;20108;-60
2024/04/04 03:55:38;;;;;;;2.55;1.05;;;;;;;;;;5031224;28;20414;-58
2024/04/04 03:58:05;;;;;;;1.33;0.70;;;;;;;;;;5026646;28;20056;-52
2024/04/04 04:00:32;;;;;;;1.38;0.73;;;;;;;;;;5021349;28;20122;-55
2024/04/04 04:02:58;;;;;;;2.38;0.80;;;;;;;;;;5026807;28;20048;-55
2024/04/04 04:05:25;;;;;;;1.10;0.70;;;;;;;;;;5030983;28;20080;-57
2024/04/04 04:07:51;;;;;;;2.47;0.60;;;;;;;;;;5028114;28;20052;-56
2024/04/04 04:10:19;;;;;;;2.47;0.70;;;;;;;;;;5022807;28;20059;-57
2024/04/04 04:12:44;;;;;;;2.20;0.50;;;;;;;;;;5028594;28;20065;-58
2024/04/04 04:15:13;;;;;;;1.00;0.50;;;;;;;;;;5030808;28;20059;-55
2024/04/04 04:17:39;;;;;;;1.17;0.60;;;;;;;;;;5027545;28;20615;-58
2024/04/04 04:21:17;;;;;;;2.65;0.60;;;;;;;;;;5023627;28;20046;-54
2024/04/04 04:22:54;;;;;;;1.77;0.77;;;;;;;;;;5030843;28;20111;-56
2024/04/04 04:25:21;;;;;;;1.85;0.68;;;;;;;;;;5031016;28;20054;-55
2024/04/04 04:27:47;;;;;;;1.95;0.60;;;;;;;;;;5030252;28;20058;-56
2024/04/04 04:30:16;;;;;;;1.02;0.60;;;;;;;;;;5004178;28;20057;-57
2024/04/04 04:32:41;;;;;;;1.40;0.50;;;;;;;;;;5011384;28;20060;-56
2024/04/04 04:35:09;;;;;;;1.48;0.50;;;;;;;;;;5011559;28;20045;-57
2024/04/04 04:37:35;;;;;;;1.15;0.60;;;;;;;;;;5011456;28;20049;-56
2024/04/04 04:40:02;;;;;;;1.40;0.55;;;;;;;;;;5005022;28;20085;-59
2024/04/04 04:42:28;;;;;;;3.13;0.60;;;;;;;;;;5008385;28;20053;-57
2024/04/04 04:44:55;;;;;;;1.48;0.57;;;;;;;;;;5021605;28;20059;-57
2024/04/04 04:47:22;;;;;;;1.33;0.50;;;;;;;;;;5017650;28;20046;-57
2024/04/04 04:49:50;;;;;;;2.38;0.70;;;;;;;;;;5009002;28;20513;-54
2024/04/04 04:52:17;;;;;;;2.88;1.00;;;;;;;;;;5010926;28;20054;-58
2024/04/04 04:54:44;;;;;;;1.15;0.50;;;;;;;;;;5011755;28;20065;-58
2024/04/04 04:57:10;;;;;;;2.08;0.50;;;;;;;;;;5003477;28;20058;-59
2024/04/04 04:59:37;;;;;;;2.05;0.60;;;;;;;;;;5011307;28;20434;-58
2024/04/04 05:02:03;;;;;;;1.88;0.50;;;;;;;;;;5010824;28;20058;-56
2024/04/04 05:04:31;;;;;;;0.65;0.60;;;;;;;;;;5015609;28;20049;-57
2024/04/04 05:06:57;;;;;;;2.65;0.60;;;;;;;;;;5012883;28;20425;-55
2024/04/04 05:09:24;;;;;;;0.70;0.40;;;;;;;;;;5011164;28;20046;-56
2024/04/04 05:11:50;;;;;;;2.38;1.55;;;;;;;;;;5020108;28;20408;-55
2024/04/04 05:14:17;;;;;;;1.45;0.73;;;;;;;;;;5029610;28;20544;-57
2024/04/04 05:16:44;;;;;;;1.10;0.60;;;;;;;;;;5025606;28;20057;-54
2024/04/04 05:19:11;;;;;;;1.05;0.60;;;;;;;;;;5030281;28;20057;-57
2024/04/04 05:21:39;;;;;;;0.90;0.50;;;;;;;;;;5034170;28;20412;-55
2024/04/04 05:24:06;;;;;;;1.25;0.40;;;;;;;;;;5033706;28;20433;-55
2024/04/04 05:26:32;;;;;;;0.90;0.50;;;;;;;;;;5025964;28;20274;-57
2024/04/04 05:28:59;;;;;;;1.58;0.47;;;;;;;;;;5022504;28;20049;-57
2024/04/04 05:31:26;;;;;;;1.25;0.57;;;;;;;;;;5034019;28;20053;-53
2024/04/04 05:33:52;;;;;;;1.05;0.60;;;;;;;;;;5033910;28;20141;-57
2024/04/04 05:36:19;;;;;;;1.75;0.60;;;;;;;;;;5033852;28;20061;-54
2024/04/04 05:38:46;;;;;;;1.40;0.68;;;;;;;;;;5028726;28;20512;-53
2024/04/04 05:41:13;;;;;;;1.65;0.55;;;;;;;;;;5021685;28;20049;-58
2024/04/04 05:43:39;;;;;;;1.63;0.60;;;;;;;;;;5014192;28;20050;-53
2024/04/04 05:46:06;;;;;;;1.10;0.60;;;;;;;;;;5013196;28;20057;-56
2024/04/04 05:48:32;;;;;;;1.40;0.95;;;;;;;;;;5010840;28;20069;-57
2024/04/04 05:51:02;;;;;;;1.55;0.50;;;;;;;;;;5013747;28;20503;-54
2024/04/04 05:53:28;;;;;;;1.75;0.50;;;;;;;;;;5014476;28;20054;-57
2024/04/04 05:55:57;;;;;;;1.73;0.70;;;;;;;;;;5014478;28;20045;-57
2024/04/04 05:58:23;;;;;;;2.25;0.60;;;;;;;;;;5011695;28;20057;-57
2024/04/04 06:00:50;;;;;;;1.35;0.60;;;;;;;;;;5014168;28;20074;-56
2024/04/04 06:03:16;;;;;;;2.00;0.70;;;;;;;;;;5014064;28;20050;-57
2024/04/04 06:05:43;;;;;;;1.85;0.55;;;;;;;;;;5013788;28;20069;-58
2024/04/04 06:08:09;;;;;;;1.58;0.70;;;;;;;;;;5012300;28;20065;-57
2024/04/04 06:10:36;;;;;;;1.35;0.40;;;;;;;;;;5009448;28;20080;-59
2024/04/04 06:13:04;;;;;;;1.77;0.60;;;;;;;;;;5011563;28;20775;-55
2024/04/04 06:15:31;;;;;;;1.75;0.60;;;;;;;;;;5011478;28;20054;-57
2024/04/04 06:17:57;;;;;;;1.05;0.50;;;;;;;;;;5010639;28;20065;-56
2024/04/04 06:20:24;;;;;;;3.67;0.60;;;;;;;;;;5011528;28;20090;-55
2024/04/04 06:22:50;;;;;;;0.70;0.40;;;;;;;;;;5009513;28;20092;-58
2024/04/04 06:25:17;;;;;;;0.75;0.50;;;;;;;;;;5013250;28;20081;-55
2024/04/04 06:27:44;;;;;;;1.73;0.77;;;;;;;;;;5013223;28;20136;-53
2024/04/04 06:30:12;;;;;;;1.20;0.50;;;;;;;;;;5012490;28;20042;-55
2024/04/04 06:32:38;;;;;;;1.75;0.60;;;;;;;;;;5010230;28;20520;-57
2024/04/04 06:35:05;;;;;;;1.88;0.60;;;;;;;;;;5019626;28;20057;-53
2024/04/04 06:37:31;;;;;;;1.60;0.50;;;;;;;;;;5022233;28;20056;-52
2024/04/04 06:39:59;;;;;;;2.28;0.40;;;;;;;;;;5030898;28;20041;-53
2024/04/04 06:42:25;;;;;;;1.45;0.50;;;;;;;;;;5012979;28;20045;-57
2024/04/04 06:44:52;;;;;;;1.48;0.70;;;;;;;;;;5029194;28;20132;-57
2024/04/04 06:47:19;;;;;;;1.15;0.40;;;;;;;;;;5032794;28;20057;-56
2024/04/04 06:49:46;;;;;;;0.82;0.60;;;;;;;;;;5032506;28;20053;-56
2024/04/04 06:52:12;;;;;;;1.55;0.50;;;;;;;;;;5032670;28;20053;-56
2024/04/04 06:54:39;;;;;;;1.35;0.52;;;;;;;;;;5022239;28;20073;-54
2024/04/04 06:57:04;;;;;;;1.35;0.60;;;;;;;;;;5025309;28;20046;-57
2024/04/04 06:59:31;;;;;;;1.42;0.43;;;;;;;;;;5009922;28;20440;-52
2024/04/04 07:01:57;;;;;;;2.03;0.50;;;;;;;;;;5012212;28;20391;-56
2024/04/04 07:04:25;;;;;;;1.42;0.77;;;;;;;;;;5023954;28;20053;-57
2024/04/04 07:06:51;;;;;;;1.67;0.45;;;;;;;;;;5030631;28;20050;-57
2024/04/04 07:09:18;;;;;;;0.93;0.50;;;;;;;;;;5020710;28;20065;-54
2024/04/04 07:11:44;;;;;;;2.42;0.40;;;;;;;;;;5022944;28;20065;-58
2024/04/04 07:14:11;;;;;;;1.05;0.57;;;;;;;;;;5008595;28;20045;-54
2024/04/04 07:16:37;;;;;;;2.35;0.43;;;;;;;;;;5005564;28;20069;-53
2024/04/04 07:19:04;;;;;;;1.38;0.47;;;;;;;;;;5005707;28;20042;-54
2024/04/04 07:21:31;;;;;;;2.50;0.57;;;;;;;;;;5009929;28;20049;-58
2024/04/04 07:23:58;;;;;;;1.48;0.40;;;;;;;;;;5019426;28;20054;-56
2024/04/04 07:26:24;;;;;;;1.13;0.40;;;;;;;;;;5014413;28;20076;-58
2024/04/04 07:28:51;;;;;;;1.42;0.40;;;;;;;;;;5010068;28;20446;-56
2024/04/04 07:31:17;;;;;;;1.88;0.70;;;;;;;;;;5010878;28;20490;-57
2024/04/04 07:33:44;;;;;;;0.85;0.38;;;;;;;;;;5006527;28;20050;-58
2024/04/04 07:36:10;;;;;;;1.50;0.50;;;;;;;;;;5021793;28;20141;-56
2024/04/04 07:38:38;;;;;;;2.35;0.60;;;;;;;;;;5008120;28;20140;-55
2024/04/04 07:41:05;;;;;;;1.65;0.50;;;;;;;;;;4998205;28;20061;-56
2024/04/04 07:43:32;;;;;;;2.17;0.70;;;;;;;;;;5007237;28;20050;-56
2024/04/04 07:46:01;;;;;;;2.88;0.80;;;;;;;;;;5003421;28;20062;-51
2024/04/04 07:48:28;;;;;;;3.30;0.70;;;;;;;;;;5007502;28;20054;-54
2024/04/04 07:50:53;;;;;;;2.05;0.55;;;;;;;;;;5011112;28;20414;-54
2024/04/04 07:53:20;;;;;;;2.15;0.50;;;;;;;;;;5008455;28;20056;-56
2024/04/04 07:55:48;;;;;;;3.35;0.60;;;;;;;;;;5013462;28;20077;-52
2024/04/04 07:58:14;;;;;;;1.58;0.30;;;;;;;;;;5013082;28;20057;-54
2024/04/04 08:00:43;;;;;;;2.97;0.70;;;;;;;;;;5005493;28;20494;-54
2024/04/04 08:03:12;;;;;;;1.27;0.50;;;;;;;;;;5009736;28;20049;-54
2024/04/04 08:05:38;;;;;;;1.33;0.30;;;;;;;;;;5003289;28;20046;-60
2024/04/04 08:08:07;;;;;;;1.80;0.50;;;;;;;;;;5005604;28;20513;-58
2024/04/04 08:10:33;;;;;;;1.98;0.50;;;;;;;;;;5007683;28;20120;-56
2024/04/04 08:13:02;;;;;;;1.20;0.60;;;;;;;;;;5004978;28;20054;-58
2024/04/04 08:15:28;;;;;;;1.50;0.40;;;;;;;;;;5005206;28;20468;-56
2024/04/04 08:17:55;;;;;;;1.48;0.50;;;;;;;;;;5010019;28;20042;-64
2024/04/04 08:20:22;;;;;;;0.52;0.40;;;;;;;;;;5017961;28;20049;-61
2024/04/04 08:22:49;;;;;;;2.85;0.50;;;;;;;;;;5011419;28;20046;-61
2024/04/04 08:25:16;;;;;;;1.17;0.40;;;;;;;;;;5010580;28;20060;-53
2024/04/04 08:27:44;;;;;;;1.27;0.40;;;;;;;;;;5008365;28;22253;-55
2024/04/04 08:30:11;;;;;;;1.73;0.50;;;;;;;;;;5005295;28;20037;-58
2024/04/04 08:32:38;;;;;;;1.30;0.47;;;;;;;;;;5003027;28;20081;-58
2024/04/04 08:35:06;;;;;;;2.58;0.63;;;;;;;;;;5009750;28;20120;-56
2024/04/04 08:37:33;;;;;;;1.67;0.52;;;;;;;;;;5012248;28;20544;-62
2024/04/04 08:39:59;;;;;;;1.25;0.73;;;;;;;;;;5001062;28;20052;-66
2024/04/04 08:42:28;;;;;;;2.38;0.50;;;;;;;;;;5008551;28;20141;-60
2024/04/04 08:44:56;;;;;;;0.80;0.43;;;;;;;;;;5001999;28;20046;-53
2024/04/04 08:47:24;;;;;;;3.15;0.68;;;;;;;;;;5016143;28;20045;-60
2024/04/04 08:49:51;;;;;;;2.75;0.50;;;;;;;;;;5013784;28;20046;-57
2024/04/04 08:52:18;;;;;;;1.48;0.60;;;;;;;;;;5009003;28;20074;-55
2024/04/04 08:54:44;;;;;;;1.75;0.50;;;;;;;;;;5014382;28;20674;-54
2024/04/04 08:57:11;;;;;;;2.03;0.73;;;;;;;;;;5018532;28;20054;-54
2024/04/04 08:59:37;;;;;;;2.10;0.50;;;;;;;;;;5026700;28;20481;-53
2024/04/04 09:02:05;;;;;;;2.40;0.50;;;;;;;;;;5012157;28;20041;-56
2024/04/04 09:04:32;;;;;;;2.13;0.60;;;;;;;;;;5016425;28;20038;-58
2024/04/04 09:06:59;;;;;;;0.93;0.43;;;;;;;;;;5021236;28;20051;-51
2024/04/04 09:09:25;;;;;;;2.92;0.60;;;;;;;;;;5015457;28;20081;-58
2024/04/04 09:11:53;;;;;;;2.03;0.70;;;;;;;;;;5010898;28;20505;-56
2024/04/04 09:14:19;;;;;;;1.60;0.68;;;;;;;;;;5014195;28;20108;-56
2024/04/04 09:16:47;;;;;;;0.63;0.57;;;;;;;;;;5027992;28;20077;-56
2024/04/04 09:19:13;;;;;;;2.70;0.60;;;;;;;;;;5011455;28;20413;-55
2024/04/04 09:21:44;;;;;;;4.82;0.68;;;;;;;;;;5014645;28;20049;-57
2024/04/04 09:24:12;;;;;;;3.17;0.57;;;;;;;;;;5002692;28;20049;-57
2024/04/04 09:26:39;;;;;;;1.25;0.50;;;;;;;;;;5031424;28;20095;-57
2024/04/04 09:29:06;;;;;;;3.65;0.93;;;;;;;;;;5018919;28;20061;-55
2024/04/04 09:31:36;;;;;;;2.58;0.90;;;;;;;;;;5009524;28;20070;-55
2024/04/04 09:34:02;;;;;;;1.75;0.60;;;;;;;;;;5016808;28;20046;-57
2024/04/04 09:36:30;;;;;;;2.53;0.70;;;;;;;;;;5030637;28;20053;-56
2024/04/04 09:38:59;;;;;;;4.85;1.25;;;;;;;;;;5013292;28;20042;-55
2024/04/04 09:41:26;;;;;;;1.40;0.57;;;;;;;;;;5003858;28;20052;-57
2024/04/04 09:43:55;;;;;;;3.75;0.70;;;;;;;;;;5012419;28;20042;-56
2024/04/04 09:46:23;;;;;;;2.70;0.82;;;;;;;;;;5014624;28;20042;-58
2024/04/04 09:48:50;;;;;;;1.95;0.60;;;;;;;;;;5010373;28;20046;-57
2024/04/04 09:51:18;;;;;;;3.30;0.55;;;;;;;;;;5012343;28;20068;-54
2024/04/04 09:53:45;;;;;;;2.92;0.60;;;;;;;;;;5017828;28;20131;-54
2024/04/04 09:56:14;;;;;;;2.78;0.70;;;;;;;;;;5016063;28;20674;-55
2024/04/04 09:58:42;;;;;;;3.97;1.05;;;;;;;;;;5017560;28;20052;-58
2024/04/04 10:01:27;;;;;;;2.30;0.88;;;;;;;;;;5011568;28;20045;-56
2024/04/04 10:03:58;;;;;;;2.80;0.70;;;;;;;;;;5009347;28;20041;-58
2024/04/04 10:06:36;;;;;;;2.55;0.60;;;;;;;;;;5017667;28;20050;-55
2024/04/04 10:09:14;;;;;;;3.55;0.90;;;;;;;;;;5014285;28;20042;-59
2024/04/04 10:11:43;;;;;;;2.80;0.60;;;;;;;;;;5016882;28;20042;-57
2024/04/04 10:14:16;;;;;;;1.65;0.50;;;;;;;;;;5008176;28;20489;-54
2024/04/04 10:16:47;;;;;;;2.15;0.63;;;;;;;;;;5019716;28;20049;-57
2024/04/04 10:19:15;;;;;;;1.45;0.50;;;;;;;;;;5019378;28;20481;-55
2024/04/04 10:21:42;;;;;;;5.03;0.77;;;;;;;;;;5025504;28;20056;-55
2024/04/04 10:24:17;;;;;;;3.30;0.57;;;;;;;;;;5023507;28;20054;-59
2024/04/04 10:26:52;;;;;;;4.15;0.65;;;;;;;;;;5028946;28;20111;-56
2024/04/04 10:29:18;;;;;;;2.17;0.50;;;;;;;;;;5007163;28;20492;-55
2024/04/04 10:31:45;;;;;;;3.38;0.90;;;;;;;;;;5013261;28;20112;-58
2024/04/04 10:34:12;;;;;;;2.35;0.73;;;;;;;;;;5005928;28;20077;-52
2024/04/04 10:36:43;;;;;;;3.28;0.60;;;;;;;;;;5015111;28;20049;-56
2024/04/04 10:39:14;;;;;;;2.40;0.55;;;;;;;;;;5017838;28;20042;-55
2024/04/04 10:41:42;;;;;;;2.13;0.60;;;;;;;;;;5021086;28;20046;-56
2024/04/04 10:44:12;;;;;;;1.10;0.50;;;;;;;;;;5018233;28;20053;-57
2024/04/04 10:46:47;;;;;;;2.33;0.60;;;;;;;;;;5014611;28;20045;-56
2024/04/04 10:49:14;;;;;;;1.63;0.50;;;;;;;;;;5020318;28;20129;-52
2024/04/04 10:51:47;;;;;;;2.67;0.60;;;;;;;;;;5027694;28;20051;-53
2024/04/04 10:54:13;;;;;;;2.17;0.50;;;;;;;;;;5020062;28;20046;-55
2024/04/04 10:56:41;;;;;;;2.05;0.55;;;;;;;;;;5026057;28;20045;-56
2024/04/04 10:59:07;;;;;;;2.35;0.50;;;;;;;;;;5018492;28;20454;-56
2024/04/04 11:01:36;;;;;;;1.17;0.50;;;;;;;;;;5019259;28;20072;-57
2024/04/04 11:04:01;;;;;;;2.00;0.60;;;;;;;;;;5020248;28;20046;-55
2024/04/04 11:06:29;;;;;;;1.88;0.57;;;;;;;;;;5012712;28;20536;-55
2024/04/04 11:08:55;;;;;;;2.97;0.70;;;;;;;;;;5018596;28;20486;-57
2024/04/04 11:11:24;;;;;;;2.13;0.50;;;;;;;;;;5024765;28;20052;-58
2024/04/04 11:13:50;;;;;;;5.00;0.80;;;;;;;;;;5020255;28;20091;-53
2024/04/04 11:16:17;;;;;;;3.05;0.70;;;;;;;;;;5017489;28;20104;-57
2024/04/04 11:18:44;;;;;;;1.67;0.60;;;;;;;;;;5011173;28;20045;-55
2024/04/04 11:21:11;;;;;;;1.88;0.57;;;;;;;;;;5008513;28;20386;-58
2024/04/04 11:23:37;;;;;;;1.38;0.50;;;;;;;;;;5016283;28;20049;-60
2024/04/04 11:26:04;;;;;;;3.20;0.47;;;;;;;;;;5016201;28;20163;-55
2024/04/04 11:28:30;;;;;;;2.53;0.60;;;;;;;;;;5016128;28;20053;-51
2024/04/04 11:30:57;;;;;;;2.70;0.50;;;;;;;;;;5014250;28;20394;-55
2024/04/04 11:33:23;;;;;;;1.50;0.60;;;;;;;;;;5012599;28;20461;-53
2024/04/04 11:35:53;;;;;;;2.75;0.70;;;;;;;;;;5012259;28;20058;-57
2024/04/04 11:38:19;;;;;;;2.50;0.82;;;;;;;;;;5012593;28;20147;-54
2024/04/04 11:40:48;;;;;;;3.33;0.70;;;;;;;;;;5012511;28;20510;-59
2024/04/04 11:43:14;;;;;;;2.15;0.77;;;;;;;;;;5011898;28;20440;-55
2024/04/04 11:45:41;;;;;;;3.60;0.68;;;;;;;;;;5011965;28;20421;-57
2024/04/04 11:48:07;;;;;;;1.63;0.45;;;;;;;;;;5012303;28;20077;-57
2024/04/04 11:50:35;;;;;;;2.30;0.57;;;;;;;;;;5012306;28;20088;-57
2024/04/04 11:53:02;;;;;;;1.38;0.70;;;;;;;;;;5011905;28;20052;-56
2024/04/04 11:55:29;;;;;;;3.00;0.57;;;;;;;;;;5011873;28;20050;-56
2024/04/04 11:57:55;;;;;;;1.50;0.50;;;;;;;;;;5011836;28;20061;-58
2024/04/04 12:00:23;;;;;;;2.00;0.50;;;;;;;;;;5011874;28;20054;-58
2024/04/04 12:02:50;;;;;;;2.53;0.60;;;;;;;;;;5011741;28;20049;-58
2024/04/04 12:05:17;;;;;;;3.53;0.80;;;;;;;;;;5017541;28;20485;-56
2024/04/04 12:07:43;;;;;;;3.33;0.90;;;;;;;;;;5024498;28;20665;-53
2024/04/04 12:10:12;;;;;;;2.88;0.60;;;;;;;;;;5017596;28;20100;-58
2024/04/04 12:12:38;;;;;;;2.42;0.50;;;;;;;;;;5024824;28;20060;-57
2024/04/04 12:15:07;;;;;;;1.73;0.70;;;;;;;;;;5016241;28;20060;-58
2024/04/04 12:17:36;;;;;;;2.78;0.95;;;;;;;;;;5019214;28;20046;-56
2024/04/04 12:20:03;;;;;;;2.05;0.63;;;;;;;;;;5021448;28;20081;-59
2024/04/04 12:22:30;;;;;;;2.53;0.60;;;;;;;;;;5026067;28;20052;-64
2024/04/04 12:24:56;;;;;;;3.00;0.60;;;;;;;;;;5010469;28;20050;-64
2024/04/04 12:27:25;;;;;;;1.95;0.60;;;;;;;;;;5009762;28;20401;-58
2024/04/04 12:29:52;;;;;;;2.60;0.60;;;;;;;;;;5026972;28;20050;-58
2024/04/04 12:32:17;;;;;;;5.13;0.70;;;;;;;;;;5025166;28;20061;-57
2024/04/04 12:34:44;;;;;;;5.15;0.93;;;;;;;;;;5015332;28;20054;-56
2024/04/04 12:37:10;;;;;;;4.53;0.93;;;;;;;;;;5018735;28;20058;-56
2024/04/04 12:39:38;;;;;;;2.65;0.80;;;;;;;;;;5019139;28;20045;-58
2024/04/04 12:42:05;;;;;;;1.90;0.60;;;;;;;;;;5021394;28;20081;-57
2024/04/04 12:44:34;;;;;;;2.20;0.70;;;;;;;;;;5023032;28;20456;-56
2024/04/04 12:47:00;;;;;;;2.25;0.60;;;;;;;;;;5020597;28;20061;-61
2024/04/04 12:49:27;;;;;;;1.67;0.63;;;;;;;;;;5026374;28;20049;-58
2024/04/04 12:51:53;;;;;;;5.03;0.80;;;;;;;;;;5020263;28;20045;-55
2024/04/04 12:54:20;;;;;;;2.92;1.20;;;;;;;;;;5021614;28;20054;-54
2024/04/04 12:56:46;;;;;;;4.07;0.82;;;;;;;;;;5018082;28;20046;-59
2024/04/04 12:59:13;;;;;;;3.53;0.68;;;;;;;;;;5023229;28;20353;-60
2024/04/04 13:01:40;;;;;;;2.88;0.90;;;;;;;;;;5025867;28;20508;-53
2024/04/04 13:04:07;;;;;;;2.80;0.80;;;;;;;;;;5023505;28;20564;-58
2024/04/04 13:06:33;;;;;;;2.95;0.73;;;;;;;;;;5017629;28;20470;-60
2024/04/04 13:09:00;;;;;;;1.92;0.57;;;;;;;;;;5018444;28;20497;-55
2024/04/04 13:11:26;;;;;;;2.17;0.63;;;;;;;;;;5023074;28;20513;-56
2024/04/04 13:13:53;;;;;;;3.40;1.00;;;;;;;;;;5027163;28;20045;-57
2024/04/04 13:16:19;;;;;;;3.70;0.80;;;;;;;;;;5019015;28;20045;-57
2024/04/04 13:18:47;;;;;;;2.38;0.70;;;;;;;;;;5014788;28;20056;-59
2024/04/04 13:21:13;;;;;;;3.05;0.73;;;;;;;;;;5014459;28;20049;-56
2024/04/04 13:23:40;;;;;;;2.65;0.80;;;;;;;;;;5012298;28;20046;-56
2024/04/04 13:26:07;;;;;;;2.13;1.15;;;;;;;;;;5018426;28;20486;-54
2024/04/04 13:28:34;;;;;;;2.58;1.05;;;;;;;;;;5025808;28;20057;-57
2024/04/04 13:31:00;;;;;;;1.80;0.80;;;;;;;;;;5015909;28;20129;-57
2024/04/04 13:33:26;;;;;;;2.03;0.60;;;;;;;;;;5011931;28;20066;-59
2024/04/04 13:35:54;;;;;;;3.97;1.20;;;;;;;;;;5018178;28;20104;-57
2024/04/04 13:38:21;;;;;;;1.77;0.90;;;;;;;;;;5025574;28;20053;-60
2024/04/04 13:40:47;;;;;;;3.03;1.45;;;;;;;;;;5026585;28;20048;-56
2024/04/04 13:43:14;;;;;;;2.65;1.30;;;;;;;;;;5013032;28;20413;-57
2024/04/04 13:45:40;;;;;;;2.60;0.60;;;;;;;;;;5018079;28;20082;-58
2024/04/04 13:48:08;;;;;;;1.58;0.90;;;;;;;;;;5026434;28;20520;-56
2024/04/04 13:50:34;;;;;;;3.63;0.80;;;;;;;;;;5024394;28;20053;-56
2024/04/04 13:53:02;;;;;;;2.70;0.60;;;;;;;;;;5014135;28;20104;-56
2024/04/04 13:55:28;;;;;;;2.90;0.80;;;;;;;;;;5016105;28;20069;-55
2024/04/04 13:57:54;;;;;;;4.40;1.17;;;;;;;;;;5024506;28;20501;-57
2024/04/04 14:00:20;;;;;;;2.58;0.90;;;;;;;;;;5014098;28;20041;-57
2024/04/04 14:02:47;;;;;;;2.80;0.80;;;;;;;;;;5013793;28;20045;-59
2024/04/04 14:05:13;;;;;;;2.38;0.98;;;;;;;;;;5018284;28;20058;-56
2024/04/04 14:07:40;;;;;;;3.05;0.75;;;;;;;;;;5013855;28;20053;-58
2024/04/04 14:10:07;;;;;;;3.13;0.90;;;;;;;;;;5013225;28;20366;-56
2024/04/04 14:12:34;;;;;;;2.60;0.80;;;;;;;;;;5017113;28;20061;-57
2024/04/04 14:15:00;;;;;;;1.77;0.73;;;;;;;;;;5023014;28;20045;-52
2024/04/04 14:17:27;;;;;;;2.47;0.82;;;;;;;;;;5020975;28;20071;-57
2024/04/04 14:19:53;;;;;;;2.45;0.93;;;;;;;;;;5017283;28;20470;-54
2024/04/04 14:22:20;;;;;;;2.33;0.75;;;;;;;;;;5021725;28;20057;-56
2024/04/04 14:24:45;;;;;;;3.55;0.90;;;;;;;;;;5021868;28;20130;-57
2024/04/04 14:27:14;;;;;;;3.60;1.30;;;;;;;;;;5016873;28;20060;-56
2024/04/04 14:29:39;;;;;;;1.10;0.60;;;;;;;;;;5022578;28;20050;-52
2024/04/04 14:32:07;;;;;;;2.20;0.75;;;;;;;;;;5016482;28;20043;-54
2024/04/04 14:34:33;;;;;;;4.05;0.85;;;;;;;;;;5012733;28;20076;-57
2024/04/04 14:37:01;;;;;;;2.63;0.80;;;;;;;;;;5014718;28;20042;-57
2024/04/04 14:39:28;;;;;;;1.55;0.50;;;;;;;;;;5023940;28;20050;-58
2024/04/04 14:41:55;;;;;;;3.03;0.75;;;;;;;;;;5019163;28;20042;-56